createdAt,value
2019-04-28T00:01:53.429Z,5.50
2019-04-28T00:04:24.104Z,5.50
2019-04-28T00:06:54.740Z,5.40
2019-04-28T00:09:25.814Z,5.50
2019-04-28T00:11:56.396Z,5.50
2019-04-28T00:14:27.274Z,5.40
2019-04-28T00:17:01.096Z,5.40
2019-04-28T00:19:32.179Z,5.30
2019-04-28T00:22:12.892Z,5.10
2019-04-28T00:25:02.365Z,5.20
2019-04-28T00:27:33.148Z,5.20
2019-04-28T00:30:04.056Z,5.10
2019-04-28T00:32:35.551Z,4.90
2019-04-28T00:35:06.418Z,4.90
2019-04-28T00:37:38.644Z,5.00
2019-04-28T00:40:12.595Z,4.80
2019-04-28T00:42:43.362Z,4.70
2019-04-28T00:45:15.790Z,4.70
2019-04-28T00:47:46.403Z,4.70
2019-04-28T00:50:17.320Z,4.90
2019-04-28T00:52:48.214Z,4.90
2019-04-28T00:55:18.869Z,4.90
2019-04-28T00:57:50.918Z,5.00
2019-04-28T01:00:23.248Z,5.00
2019-04-28T01:02:53.875Z,5.10
2019-04-28T01:05:24.560Z,5.00
2019-04-28T01:07:55.287Z,5.10
2019-04-28T01:10:27.428Z,5.10
2019-04-28T01:12:58.275Z,5.20
2019-04-28T01:15:39.725Z,5.20
2019-04-28T01:18:17.471Z,5.30
2019-04-28T01:20:49.578Z,5.20
2019-04-28T01:23:20.423Z,5.20
2019-04-28T01:25:51.214Z,5.30
2019-04-28T01:28:21.805Z,5.20
2019-04-28T01:31:15.324Z,5.30
2019-04-28T01:34:04.765Z,5.30
2019-04-28T01:36:37.376Z,5.30
2019-04-28T01:39:10.097Z,5.30
2019-04-28T01:41:41.027Z,5.30
2019-04-28T01:44:11.588Z,5.30
2019-04-28T01:46:42.468Z,5.20
2019-04-28T01:49:13.305Z,5.30
2019-04-28T01:51:43.956Z,5.20
2019-04-28T01:54:14.531Z,5.10
2019-04-28T01:56:45.690Z,5.10
2019-04-28T01:59:16.440Z,5.20
2019-04-28T02:01:47.008Z,5.20
2019-04-28T02:04:17.634Z,5.20
2019-04-28T02:06:49.753Z,5.20
2019-04-28T02:09:20.721Z,5.20
2019-04-28T02:11:51.604Z,5.20
2019-04-28T02:14:22.651Z,5.10
2019-04-28T02:16:53.507Z,5.10
2019-04-28T02:19:24.799Z,5.10
2019-04-28T02:22:11.639Z,5.10
2019-04-28T02:24:42.530Z,5.10
2019-04-28T02:27:13.554Z,5.00
2019-04-28T02:29:44.463Z,4.80
2019-04-28T02:32:15.022Z,4.80
2019-04-28T02:34:45.636Z,4.70
2019-04-28T02:37:16.340Z,4.60
2019-04-28T02:39:47.521Z,4.70
2019-04-28T02:42:20.751Z,4.60
2019-04-28T02:44:51.528Z,4.60
2019-04-28T02:47:22.209Z,4.40
2019-04-28T02:50:00.971Z,4.50
2019-04-28T02:52:48.005Z,4.40
2019-04-28T02:55:21.181Z,4.30
2019-04-28T02:57:51.876Z,4.20
2019-04-28T03:00:22.749Z,4.40
2019-04-28T03:02:54.740Z,4.40
2019-04-28T03:05:25.894Z,4.30
2019-04-28T03:07:56.616Z,4.30
2019-04-28T03:10:27.464Z,4.30
2019-04-28T03:13:01.030Z,4.30
2019-04-28T03:15:30.922Z,4.10
2019-04-28T03:18:02.226Z,4.10
2019-04-28T03:20:33.209Z,4.00
2019-04-28T03:23:03.867Z,3.90
2019-04-28T03:25:54.839Z,3.80
2019-04-28T03:28:34.408Z,3.90
2019-04-28T03:31:59.145Z,3.80
2019-04-28T03:33:56.347Z,3.70
2019-04-28T03:36:27.079Z,3.60
2019-04-28T03:38:57.628Z,3.60
2019-04-28T03:41:30.887Z,3.60
2019-04-28T03:44:00.767Z,3.60
2019-04-28T03:46:33.152Z,3.60
2019-04-28T03:49:03.703Z,3.60
2019-04-28T03:51:36.015Z,3.60
2019-04-28T03:54:06.599Z,3.60
2019-04-28T03:56:37.820Z,3.60
2019-04-28T03:59:10.368Z,3.60
2019-04-28T04:01:55.933Z,3.60
2019-04-28T04:04:13.574Z,3.60
2019-04-28T04:06:44.245Z,3.70
2019-04-28T04:09:14.800Z,3.60
2019-04-28T04:12:04.825Z,3.60
2019-04-28T04:14:42.078Z,3.70
2019-04-28T04:17:17.847Z,3.70
2019-04-28T04:19:50.362Z,3.80
2019-04-28T04:22:21.462Z,3.80
2019-04-28T04:24:52.439Z,3.70
2019-04-28T04:27:23.332Z,3.70
2019-04-28T04:29:53.924Z,3.60
2019-04-28T04:32:27.122Z,3.60
2019-04-28T04:34:57.086Z,3.60
2019-04-28T04:37:30.591Z,3.70
2019-04-28T04:40:01.262Z,3.60
2019-04-28T04:42:32.609Z,3.60
2019-04-28T04:45:05.037Z,3.60
2019-04-28T04:47:36.212Z,3.60
2019-04-28T04:50:07.335Z,3.70
2019-04-28T04:52:40.301Z,3.90
2019-04-28T04:55:11.242Z,4.10
2019-04-28T04:57:42.041Z,4.10
2019-04-28T05:00:17.937Z,4.20
2019-04-28T05:02:57.342Z,4.20
2019-04-28T05:05:40.359Z,4.20
2019-04-28T05:08:15.381Z,4.30
2019-04-28T05:10:43.641Z,4.40
2019-04-28T05:13:14.268Z,4.50
2019-04-28T05:15:44.868Z,4.50
2019-04-28T05:18:16.045Z,4.40
2019-04-28T05:20:46.867Z,4.60
2019-04-28T05:23:29.727Z,4.70
2019-04-28T05:26:01.564Z,4.80
2019-04-28T05:28:36.969Z,4.80
2019-04-28T05:31:05.075Z,4.90
2019-04-28T05:33:36.210Z,5.00
2019-04-28T05:36:06.977Z,5.10
2019-04-28T05:38:38.062Z,5.40
2019-04-28T05:41:10.541Z,5.50
2019-04-28T05:43:41.206Z,5.50
2019-04-28T05:46:12.110Z,5.50
2019-04-28T05:48:52.568Z,5.70
2019-04-28T05:51:24.805Z,6.00
2019-04-28T05:54:02.838Z,6.00
2019-04-28T05:56:44.884Z,6.00
2019-04-28T05:59:21.317Z,6.10
2019-04-28T06:02:05.413Z,6.20
2019-04-28T06:04:36.345Z,6.60
2019-04-28T06:07:14.970Z,7.00
2019-04-28T06:09:50.148Z,7.10
2019-04-28T06:12:21.411Z,7.80
2019-04-28T06:14:52.299Z,8.00
2019-04-28T06:17:23.019Z,8.00
2019-04-28T06:19:54.536Z,8.20
2019-04-28T06:22:25.123Z,8.20
2019-04-28T06:24:56.591Z,8.20
2019-04-28T06:27:27.134Z,8.10
2019-04-28T06:29:57.846Z,7.90
2019-04-28T06:32:28.499Z,7.60
2019-04-28T06:34:59.157Z,7.50
2019-04-28T06:37:29.994Z,7.60
2019-04-28T06:40:00.883Z,7.30
2019-04-28T06:42:36.038Z,7.30
2019-04-28T06:45:07.702Z,7.50
2019-04-28T06:47:38.647Z,7.70
2019-04-28T06:50:13.319Z,7.80
2019-04-28T06:52:44.085Z,7.70
2019-04-28T06:55:16.711Z,7.30
2019-04-28T06:57:49.978Z,7.40
2019-04-28T07:00:20.865Z,7.60
2019-04-28T07:02:59.101Z,7.40
2019-04-28T07:05:51.233Z,7.40
2019-04-28T07:08:22.121Z,8.30
2019-04-28T07:10:52.940Z,8.20
2019-04-28T07:13:26.778Z,8.20
2019-04-28T07:15:57.421Z,8.00
2019-04-28T07:18:28.129Z,8.10
2019-04-28T07:21:17.855Z,8.60
2019-04-28T07:23:49.130Z,8.40
2019-04-28T07:26:19.736Z,9.00
2019-04-28T07:28:50.456Z,9.80
2019-04-28T07:31:22.890Z,9.40
2019-04-28T07:33:53.503Z,9.40
2019-04-28T07:36:24.212Z,9.40
2019-04-28T07:38:55.127Z,9.00
2019-04-28T07:41:29.675Z,9.20
2019-04-28T07:44:00.380Z,9.10
2019-04-28T07:46:31.246Z,9.10
2019-04-28T07:49:02.143Z,10.20
2019-04-28T07:52:06.891Z,10.30
2019-04-28T07:54:40.096Z,11.10
2019-04-28T07:57:10.559Z,10.20
2019-04-28T07:59:41.589Z,10.40
2019-04-28T08:02:12.289Z,10.50
2019-04-28T08:04:43.122Z,10.90
2019-04-28T08:07:13.977Z,10.90
2019-04-28T08:09:49.060Z,11.30
2019-04-28T08:12:17.196Z,11.80
2019-04-28T08:14:48.366Z,12.40
2019-04-28T08:17:19.214Z,12.90
2019-04-28T08:19:50.066Z,12.50
2019-04-28T08:22:20.746Z,13.50
2019-04-28T08:24:51.588Z,13.20
2019-04-28T08:27:24.500Z,13.10
2019-04-28T08:29:58.752Z,13.50
2019-04-28T08:32:34.445Z,11.90
2019-04-28T08:35:07.872Z,11.80
2019-04-28T08:37:37.751Z,11.20
2019-04-28T08:40:08.525Z,11.00
2019-04-28T08:42:39.422Z,10.70
2019-04-28T08:45:10.651Z,11.00
2019-04-28T08:47:41.463Z,11.10
2019-04-28T08:50:12.835Z,11.20
2019-04-28T08:52:43.514Z,12.50
2019-04-28T08:55:14.207Z,11.90
2019-04-28T08:57:45.126Z,11.50
2019-04-28T09:00:16.892Z,11.20
2019-04-28T09:02:47.713Z,12.70
2019-04-28T09:05:18.425Z,14.10
2019-04-28T09:07:49.251Z,14.00
2019-04-28T09:10:20.135Z,13.70
2019-04-28T09:12:50.739Z,12.80
2019-04-28T09:15:21.406Z,12.10
2019-04-28T09:17:52.481Z,11.40
2019-04-28T09:20:23.344Z,11.20
2019-04-28T09:25:36.956Z,10.50
2019-04-28T09:28:08.282Z,10.30
2019-04-28T09:30:38.974Z,10.00
2019-04-28T09:33:09.630Z,10.00
2019-04-28T09:35:40.421Z,9.80
2019-04-28T09:38:11.309Z,10.00
2019-04-28T09:40:42.232Z,10.10
2019-04-28T09:43:20.693Z,10.20
2019-04-28T09:46:03.048Z,10.80
2019-04-28T09:48:33.793Z,11.10
2019-04-28T09:51:04.715Z,11.20
2019-04-28T09:53:36.523Z,11.40
2019-04-28T09:56:07.341Z,11.50
2019-04-28T09:58:38.452Z,11.70
2019-04-28T10:01:09.454Z,10.90
2019-04-28T10:03:40.418Z,10.40
2019-04-28T10:06:11.402Z,10.00
2019-04-28T10:08:44.023Z,9.30
2019-04-28T10:11:14.683Z,9.60
2019-04-28T10:13:45.498Z,9.90
2019-04-28T10:16:16.257Z,9.80
2019-04-28T10:18:47.096Z,10.10
2019-04-28T10:21:17.751Z,10.70
2019-04-28T10:23:48.617Z,10.50
2019-04-28T10:26:19.600Z,11.80
2019-04-28T10:28:50.412Z,11.10
2019-04-28T10:31:21.283Z,11.20
2019-04-28T10:33:56.236Z,10.20
2019-04-28T10:36:28.454Z,10.60
2019-04-28T10:39:20.137Z,11.10
2019-04-28T10:41:54.565Z,10.40
2019-04-28T10:44:26.726Z,10.70
2019-04-28T10:46:57.480Z,11.70
2019-04-28T10:49:28.654Z,11.40
2019-04-28T10:51:59.852Z,11.50
2019-04-28T10:54:30.673Z,11.60
2019-04-28T10:57:01.303Z,11.10
2019-04-28T10:59:31.961Z,11.10
2019-04-28T11:02:02.660Z,11.70
2019-04-28T11:04:50.530Z,12.00
2019-04-28T11:07:21.487Z,12.00
2019-04-28T11:10:01.770Z,11.60
2019-04-28T11:12:32.572Z,11.60
2019-04-28T11:15:04.994Z,11.50
2019-04-28T11:17:36.720Z,11.20
2019-04-28T11:20:07.968Z,11.00
2019-04-28T11:22:38.632Z,10.50
2019-04-28T11:25:09.704Z,10.20
2019-04-28T11:27:40.477Z,9.90
2019-04-28T11:30:12.557Z,9.90
2019-04-28T11:32:49.880Z,9.70
2019-04-28T11:35:27.961Z,9.70
2019-04-28T11:37:58.582Z,9.70
2019-04-28T11:40:29.894Z,9.70
2019-04-28T11:43:00.493Z,9.90
2019-04-28T11:45:31.487Z,10.00
2019-04-28T11:48:02.553Z,9.80
2019-04-28T11:50:33.192Z,10.00
2019-04-28T11:53:03.813Z,9.90
2019-04-28T11:55:34.422Z,10.20
2019-04-28T11:58:05.146Z,10.10
2019-04-28T12:00:36.760Z,10.40
2019-04-28T12:03:08.457Z,11.30
2019-04-28T12:05:46.010Z,11.50
2019-04-28T12:08:16.667Z,12.00
2019-04-28T12:11:21.734Z,11.00
2019-04-28T12:14:06.844Z,11.20
2019-04-28T12:16:55.906Z,11.30
2019-04-28T12:19:36.879Z,12.00
2019-04-28T12:22:07.569Z,12.60
2019-04-28T12:24:38.504Z,12.20
2019-04-28T12:27:09.260Z,11.50
2019-04-28T12:29:40.266Z,11.20
2019-04-28T12:32:11.005Z,11.40
2019-04-28T12:34:41.710Z,11.40
2019-04-28T12:37:12.629Z,11.10
2019-04-28T12:39:46.008Z,10.80
2019-04-28T12:42:16.747Z,10.50
2019-04-28T12:44:48.146Z,11.10
2019-04-28T12:47:18.881Z,11.70
2019-04-28T12:49:57.515Z,11.80
2019-04-28T12:52:28.264Z,11.70
2019-04-28T12:54:59.225Z,11.60
2019-04-28T12:57:29.936Z,11.90
2019-04-28T13:00:11.125Z,11.60
2019-04-28T13:02:49.770Z,11.50
2019-04-28T13:05:21.584Z,11.40
2019-04-28T13:07:52.434Z,11.60
2019-04-28T13:10:23.109Z,11.50
2019-04-28T13:12:53.829Z,11.40
2019-04-28T13:15:24.811Z,11.50
2019-04-28T13:17:56.401Z,11.70
2019-04-28T13:20:27.135Z,11.80
2019-04-28T13:22:57.995Z,11.90
2019-04-28T13:25:28.829Z,11.80
2019-04-28T13:27:59.684Z,11.70
2019-04-28T13:30:30.610Z,11.60
2019-04-28T13:33:01.700Z,11.30
2019-04-28T13:35:32.923Z,11.30
2019-04-28T13:38:03.760Z,11.50
2019-04-28T13:40:36.380Z,11.30
2019-04-28T13:43:07.072Z,11.30
2019-04-28T13:45:38.591Z,11.10
2019-04-28T13:48:09.370Z,11.10
2019-04-28T13:50:40.320Z,10.90
2019-04-28T13:53:11.099Z,10.60
2019-04-28T13:56:03.702Z,10.50
2019-04-28T13:58:54.446Z,10.50
2019-04-28T14:01:43.037Z,10.50
2019-04-28T14:04:35.373Z,10.50
2019-04-28T14:07:07.441Z,10.50
2019-04-28T14:09:38.545Z,10.50
2019-04-28T14:12:09.789Z,10.50
2019-04-28T14:14:40.973Z,10.80
2019-04-28T14:17:11.767Z,10.90
2019-04-28T14:19:43.168Z,10.90
2019-04-28T14:22:13.877Z,11.00
2019-04-28T14:24:47.869Z,11.00
2019-04-28T14:27:18.833Z,11.00
2019-04-28T14:29:50.345Z,11.00
2019-04-28T14:32:20.956Z,11.10
2019-04-28T14:34:51.796Z,11.00
2019-04-28T14:37:22.764Z,11.10
2019-04-28T14:39:53.432Z,11.10
2019-04-28T14:42:24.046Z,11.20
2019-04-28T14:44:55.085Z,11.20
2019-04-28T14:47:25.849Z,11.10
2019-04-28T14:49:57.148Z,11.10
2019-04-28T14:52:27.849Z,11.10
2019-04-28T14:54:58.730Z,11.20
2019-04-28T14:57:29.856Z,11.40
2019-04-28T15:00:00.783Z,11.40
2019-04-28T15:02:42.165Z,11.50
2019-04-28T15:05:47.464Z,11.50
2019-04-28T15:08:46.098Z,11.30
2019-04-28T15:11:34.759Z,11.30
2019-04-28T15:14:05.625Z,11.20
2019-04-28T15:16:37.361Z,11.20
2019-04-28T15:19:08.017Z,11.20
2019-04-28T15:21:39.197Z,11.00
2019-04-28T15:24:09.953Z,11.10
2019-04-28T15:26:41.099Z,11.10
2019-04-28T15:29:12.047Z,11.20
2019-04-28T15:31:43.069Z,11.10
2019-04-28T15:34:13.972Z,11.00
2019-04-28T15:36:44.890Z,11.00
2019-04-28T15:39:16.249Z,10.90
2019-04-28T15:41:47.107Z,11.10
2019-04-28T15:44:17.983Z,11.00
2019-04-28T15:46:48.955Z,11.10
2019-04-28T15:49:20.028Z,11.20
2019-04-28T15:51:51.192Z,11.10
2019-04-28T15:54:22.028Z,10.90
2019-04-28T15:56:53.174Z,10.90
2019-04-28T15:59:25.363Z,10.90
2019-04-28T16:01:56.582Z,10.70
2019-04-28T16:04:27.230Z,10.50
2019-04-28T16:06:57.930Z,10.60
2019-04-28T16:09:29.225Z,10.30
2019-04-28T16:12:00.086Z,10.00
2019-04-28T16:14:33.491Z,10.00
2019-04-28T16:17:04.755Z,9.90
2019-04-28T16:19:36.837Z,9.60
2019-04-28T16:22:08.160Z,9.30
2019-04-28T16:24:39.618Z,8.90
2019-04-28T16:27:11.075Z,8.70
2019-04-28T16:29:41.738Z,8.50
2019-04-28T16:32:14.075Z,8.50
2019-04-28T16:34:46.201Z,8.50
2019-04-28T16:39:52.784Z,8.60
2019-04-28T16:42:25.671Z,8.50
2019-04-28T16:44:58.548Z,8.40
2019-04-28T16:47:29.964Z,8.40
2019-04-28T16:50:01.692Z,8.40
2019-04-28T16:52:32.469Z,8.30
2019-04-28T16:55:25.743Z,8.50
2019-04-28T16:58:24.641Z,8.40
2019-04-28T17:01:14.860Z,8.50
2019-04-28T17:03:46.418Z,8.20
2019-04-28T17:06:18.501Z,8.10
2019-04-28T17:08:51.335Z,7.90
2019-04-28T17:11:24.854Z,7.90
2019-04-28T17:13:55.950Z,7.90
2019-04-28T17:16:27.150Z,7.90
2019-04-28T17:19:00.537Z,7.90
2019-04-28T17:21:31.383Z,7.90
2019-04-28T17:24:02.010Z,7.90
2019-04-28T17:26:32.669Z,7.80
2019-04-28T17:29:03.547Z,7.70
2019-04-28T17:31:34.328Z,7.70
2019-04-28T17:34:08.335Z,7.70
2019-04-28T17:36:39.332Z,7.80
2019-04-28T17:39:16.662Z,7.80
2019-04-28T17:41:47.847Z,7.80
2019-04-28T17:44:19.287Z,7.80
2019-04-28T17:46:50.279Z,7.80
2019-04-28T17:49:27.752Z,7.80
2019-04-28T17:51:58.687Z,7.80
2019-04-28T17:54:29.595Z,7.80
2019-04-28T17:57:02.583Z,7.60
2019-04-28T17:59:33.964Z,7.80
2019-04-28T18:02:26.669Z,7.90
2019-04-28T18:05:22.432Z,7.80
2019-04-28T18:07:57.811Z,7.70
2019-04-28T18:10:33.894Z,7.60
2019-04-28T18:13:05.309Z,7.50
2019-04-28T18:15:59.255Z,7.50
2019-04-28T18:18:43.346Z,7.50
2019-04-28T18:21:14.268Z,7.50
2019-04-28T18:23:45.370Z,7.50
2019-04-28T18:26:23.618Z,7.40
2019-04-28T18:28:54.905Z,7.30
2019-04-28T18:31:43.031Z,7.30
2019-04-28T18:34:31.389Z,7.30
2019-04-28T18:37:21.160Z,7.40
2019-04-28T18:40:18.634Z,7.30
2019-04-28T18:42:56.261Z,7.30
2019-04-28T18:45:27.184Z,7.30
2019-04-28T18:47:58.614Z,7.20
2019-04-28T18:50:29.343Z,7.20
2019-04-28T18:53:00.715Z,7.10
2019-04-28T18:55:34.187Z,7.10
2019-04-28T18:58:05.432Z,6.90
2019-04-28T19:00:40.072Z,6.90
2019-04-28T19:03:10.879Z,6.80
2019-04-28T19:05:43.489Z,6.70
2019-04-28T19:08:48.461Z,6.70
2019-04-28T19:11:19.644Z,6.70
2019-04-28T19:13:55.344Z,6.60
2019-04-28T19:16:50.918Z,6.60
2019-04-28T19:19:22.312Z,6.50
2019-04-28T19:21:57.115Z,6.40
2019-04-28T19:24:28.657Z,6.30
2019-04-28T19:27:03.682Z,6.30
2019-04-28T19:29:40.270Z,6.30
2019-04-28T19:32:11.370Z,6.30
2019-04-28T19:34:42.457Z,6.20
2019-04-28T19:37:13.727Z,6.00
2019-04-28T19:39:44.825Z,6.00
2019-04-28T19:42:15.508Z,5.90
2019-04-28T19:44:46.722Z,6.00
2019-04-28T19:47:17.502Z,6.00
2019-04-28T19:49:48.355Z,6.00
2019-04-28T19:52:19.344Z,6.00
2019-04-28T19:55:06.181Z,5.80
2019-04-28T19:57:56.433Z,5.80
2019-04-28T20:00:31.969Z,5.70
2019-04-28T20:03:02.869Z,5.70
2019-04-28T20:05:33.711Z,5.80
2019-04-28T20:08:04.655Z,5.70
2019-04-28T20:10:35.356Z,5.70
2019-04-28T20:13:06.416Z,5.60
2019-04-28T20:15:37.935Z,5.50
2019-04-28T20:18:08.600Z,5.50
2019-04-28T20:20:39.959Z,5.40
2019-04-28T20:23:10.671Z,5.50
2019-04-28T20:25:41.668Z,5.50
2019-04-28T20:28:12.489Z,5.40
2019-04-28T20:30:43.460Z,5.50
2019-04-28T20:33:14.983Z,5.40
2019-04-28T20:35:51.323Z,5.50
2019-04-28T20:38:28.801Z,5.50
2019-04-28T20:41:05.786Z,5.40
2019-04-28T20:43:44.550Z,5.40
2019-04-28T20:46:15.295Z,5.50
2019-04-28T20:48:47.262Z,5.40
2019-04-28T20:51:17.797Z,5.40
2019-04-28T20:53:48.720Z,5.50
2019-04-28T20:56:19.545Z,5.40
2019-04-28T20:58:50.482Z,5.30
2019-04-28T21:01:21.532Z,5.20
2019-04-28T21:03:52.447Z,5.20
2019-04-28T21:06:23.412Z,5.20
2019-04-28T21:08:54.688Z,5.20
2019-04-28T21:11:25.552Z,5.20
2019-04-28T21:13:56.632Z,5.20
2019-04-28T21:16:27.600Z,5.30
2019-04-28T21:18:58.427Z,5.30
2019-04-28T21:21:29.457Z,5.20
2019-04-28T21:24:00.455Z,5.10
2019-04-28T21:26:31.262Z,5.10
2019-04-28T21:29:02.160Z,5.20
2019-04-28T21:31:32.903Z,5.10
2019-04-28T21:34:03.614Z,5.10
2019-04-28T21:36:34.414Z,5.10
2019-04-28T21:39:08.424Z,5.10
2019-04-28T21:41:39.698Z,5.10
2019-04-28T21:44:26.639Z,5.10
2019-04-28T21:47:05.742Z,5.00
2019-04-28T21:49:40.083Z,5.00
2019-04-28T21:52:10.985Z,4.90
2019-04-28T21:54:41.618Z,4.90
2019-04-28T21:57:12.375Z,4.90
2019-04-28T21:59:43.296Z,4.90
2019-04-28T22:02:14.222Z,4.90
2019-04-28T22:04:47.005Z,4.90
2019-04-28T22:07:17.875Z,4.90
2019-04-28T22:09:48.756Z,5.00
2019-04-28T22:12:19.369Z,5.00
2019-04-28T22:14:50.446Z,4.90
2019-04-28T22:17:21.085Z,4.80
2019-04-28T22:19:51.924Z,4.80
2019-04-28T22:22:22.592Z,4.90
2019-04-28T22:25:05.785Z,5.00
2019-04-28T22:27:41.765Z,4.90
2019-04-28T22:30:12.742Z,5.00
2019-04-28T22:32:43.744Z,5.00
2019-04-28T22:35:14.785Z,4.90
2019-04-28T22:37:45.698Z,4.90
2019-04-28T22:40:16.646Z,4.90
2019-04-28T22:42:47.797Z,4.90
2019-04-28T22:45:18.644Z,4.80
2019-04-28T22:47:51.144Z,4.80
2019-04-28T22:50:39.875Z,4.80
2019-04-28T22:53:10.870Z,4.80
2019-04-28T22:56:02.301Z,4.70
2019-04-28T22:58:45.597Z,4.70
2019-04-28T23:01:35.890Z,4.70
2019-04-28T23:04:24.955Z,4.70
2019-04-28T23:06:55.865Z,4.70
2019-04-28T23:09:26.593Z,4.70
2019-04-28T23:11:57.545Z,4.80
2019-04-28T23:14:28.146Z,4.80
2019-04-28T23:16:59.079Z,4.70
2019-04-28T23:19:32.097Z,4.80
2019-04-28T23:22:30.624Z,4.70
2019-04-28T23:25:01.482Z,4.60
2019-04-28T23:27:32.162Z,4.80
2019-04-28T23:30:02.816Z,4.80
2019-04-28T23:32:33.650Z,4.70
2019-04-28T23:35:04.753Z,4.80
2019-04-28T23:37:35.641Z,4.70
2019-04-28T23:40:08.127Z,4.70
2019-04-28T23:42:43.930Z,4.70
2019-04-28T23:45:14.632Z,4.80
2019-04-28T23:47:45.861Z,4.80
2019-04-28T23:50:18.502Z,4.70
2019-04-28T23:53:07.827Z,4.70
2019-04-28T23:55:38.771Z,4.60
2019-04-28T23:58:09.545Z,4.60
